createdAt,value
2023-02-17T05:00:32.399Z,0.00
2023-02-17T05:01:33.435Z,0.00
2023-02-17T05:02:33.366Z,0.00
2023-02-17T05:03:33.365Z,0.00
2023-02-17T05:04:33.351Z,0.00
2023-02-17T05:05:33.356Z,0.00
2023-02-17T05:06:33.337Z,0.00
2023-02-17T05:07:33.314Z,0.00
2023-02-17T05:08:33.366Z,0.00
2023-02-17T05:09:33.313Z,0.00
2023-02-17T05:10:33.340Z,0.00
2023-02-17T05:11:33.288Z,0.00
2023-02-17T05:12:33.254Z,0.00
2023-02-17T05:13:33.308Z,0.00
2023-02-17T05:14:33.256Z,0.00
2023-02-17T05:15:34.979Z,0.00
2023-02-17T05:16:33.229Z,0.00
2023-02-17T05:17:33.195Z,0.00
2023-02-17T05:18:33.249Z,0.00
2023-02-17T05:19:33.213Z,0.00
2023-02-17T05:20:33.272Z,0.00
2023-02-17T05:21:33.208Z,0.00
2023-02-17T05:22:33.197Z,0.00
2023-02-17T05:23:33.205Z,0.00
2023-02-17T05:24:33.179Z,0.00
2023-02-17T05:25:33.154Z,0.00
2023-02-17T05:26:33.120Z,0.00
2023-02-17T05:27:33.151Z,0.00
2023-02-17T05:28:33.196Z,0.00
2023-02-17T05:29:33.152Z,0.00
2023-02-17T05:30:33.073Z,0.00
2023-02-17T05:31:33.198Z,0.00
2023-02-17T05:32:33.073Z,0.00
2023-02-17T05:33:33.044Z,0.00
2023-02-17T05:34:33.025Z,0.00
2023-02-17T05:35:34.976Z,0.00
2023-02-17T05:36:33.025Z,0.00
2023-02-17T05:37:33.023Z,0.00
2023-02-17T05:38:32.977Z,0.00
2023-02-17T05:39:32.984Z,0.00
2023-02-17T05:40:32.956Z,0.00
2023-02-17T05:41:32.940Z,0.00
2023-02-17T05:42:32.973Z,0.00
2023-02-17T05:43:32.943Z,0.00
2023-02-17T05:44:32.908Z,0.00
2023-02-17T05:45:32.960Z,0.00
2023-02-17T05:46:33.103Z,0.00
2023-02-17T05:47:32.911Z,0.00
2023-02-17T05:48:32.888Z,0.00
2023-02-17T05:49:32.880Z,0.00
2023-02-17T05:50:32.947Z,0.00
2023-02-17T05:51:32.826Z,0.00
2023-02-17T05:52:32.839Z,0.00
2023-02-17T05:53:32.835Z,0.00
2023-02-17T05:54:32.754Z,0.00
2023-02-17T05:55:32.791Z,0.00
2023-02-17T05:56:32.763Z,0.00
2023-02-17T05:57:32.764Z,0.00
2023-02-17T05:58:32.758Z,0.00
2023-02-17T05:59:32.755Z,0.00
2023-02-17T06:00:32.762Z,0.00
2023-02-17T06:01:32.676Z,0.00
2023-02-17T06:02:32.716Z,0.00
2023-02-17T06:03:32.675Z,0.00
2023-02-17T06:04:32.725Z,0.00
2023-02-17T06:05:32.677Z,0.00
2023-02-17T06:06:32.619Z,0.00
2023-02-17T06:07:32.625Z,0.00
2023-02-17T06:08:32.629Z,0.00
2023-02-17T06:09:32.611Z,0.00
2023-02-17T06:10:32.727Z,0.00
2023-02-17T06:11:32.626Z,0.00
2023-02-17T06:12:32.661Z,0.00
2023-02-17T06:13:32.579Z,0.00
2023-02-17T06:14:32.538Z,0.00
2023-02-17T06:15:32.555Z,0.00
2023-02-17T06:16:32.555Z,0.00
2023-02-17T06:17:32.511Z,0.00
2023-02-17T06:18:32.501Z,0.00
2023-02-17T06:19:32.496Z,0.00
2023-02-17T06:20:32.474Z,0.00
2023-02-17T06:21:32.489Z,0.00
2023-02-17T06:22:32.471Z,0.00
2023-02-17T06:23:32.437Z,0.00
2023-02-17T06:24:32.448Z,0.00
2023-02-17T06:25:32.423Z,0.00
2023-02-17T06:26:32.416Z,0.00
2023-02-17T06:27:32.399Z,0.00
2023-02-17T06:28:34.257Z,0.00
2023-02-17T06:29:32.404Z,0.00
2023-02-17T06:30:32.560Z,0.00
2023-02-17T06:31:32.540Z,0.00
2023-02-17T06:32:32.333Z,0.00
2023-02-17T06:33:32.438Z,0.00
2023-02-17T06:34:32.329Z,0.00
2023-02-17T06:35:32.318Z,0.00
2023-02-17T06:36:32.327Z,0.00
2023-02-17T06:37:32.291Z,0.00
2023-02-17T06:38:32.292Z,0.00
2023-02-17T06:39:32.257Z,0.00
2023-02-17T06:40:32.259Z,0.00
2023-02-17T06:41:32.240Z,0.00
2023-02-17T06:42:32.235Z,0.00
2023-02-17T06:43:32.266Z,0.00
2023-02-17T06:44:32.212Z,0.00
2023-02-17T06:45:32.243Z,0.00
2023-02-17T06:46:32.439Z,0.00
2023-02-17T06:47:32.202Z,0.00
2023-02-17T06:48:32.222Z,0.00
2023-02-17T06:49:32.163Z,0.00
2023-02-17T06:50:32.166Z,0.00
2023-02-17T06:51:32.149Z,0.00
2023-02-17T06:52:32.148Z,0.00
2023-02-17T06:53:32.092Z,0.00
2023-02-17T06:54:32.209Z,0.00
2023-02-17T06:55:32.078Z,0.00
2023-02-17T06:56:32.121Z,0.00
2023-02-17T06:57:32.112Z,5.62
2023-02-17T06:58:32.076Z,5.62
2023-02-17T06:59:32.062Z,5.62
2023-02-17T07:00:32.165Z,5.62
2023-02-17T07:01:32.048Z,5.62
2023-02-17T07:02:32.162Z,5.62
2023-02-17T07:03:32.014Z,5.62
2023-02-17T07:04:32.061Z,5.62
2023-02-17T07:05:31.984Z,5.62
2023-02-17T07:06:31.978Z,5.62
2023-02-17T07:07:31.948Z,5.62
2023-02-17T07:08:34.057Z,5.62
2023-02-17T07:09:31.941Z,5.62
2023-02-17T07:10:31.925Z,11.25
2023-02-17T07:11:31.978Z,11.25
2023-02-17T07:12:31.930Z,11.25
2023-02-17T07:13:31.922Z,11.25
2023-02-17T07:14:31.895Z,11.25
2023-02-17T07:15:31.891Z,11.25
2023-02-17T07:16:31.891Z,16.88
2023-02-17T07:17:32.091Z,16.88
2023-02-17T07:18:31.834Z,16.88
2023-02-17T07:19:31.851Z,16.88
2023-02-17T07:20:31.862Z,16.88
2023-02-17T07:21:31.813Z,16.88
2023-02-17T07:22:31.803Z,11.25
2023-02-17T07:23:31.880Z,16.88
2023-02-17T07:24:31.802Z,16.88
2023-02-17T07:25:31.799Z,16.88
2023-02-17T07:26:31.764Z,11.25
2023-02-17T07:27:31.785Z,11.25
2023-02-17T07:28:31.766Z,11.25
2023-02-17T07:29:31.781Z,16.88
2023-02-17T07:30:31.791Z,16.88
2023-02-17T07:31:32.646Z,16.88
2023-02-17T07:32:31.764Z,16.88
2023-02-17T07:33:31.712Z,16.88
2023-02-17T07:34:31.724Z,16.88
2023-02-17T07:35:31.715Z,16.88
2023-02-17T07:36:31.689Z,16.88
2023-02-17T07:37:31.633Z,16.88
2023-02-17T07:38:33.424Z,22.50
2023-02-17T07:39:31.659Z,22.50
2023-02-17T07:40:31.622Z,22.50
2023-02-17T07:41:31.676Z,22.50
2023-02-17T07:42:31.658Z,16.88
2023-02-17T07:43:31.563Z,16.88
2023-02-17T07:44:31.679Z,22.50
2023-02-17T07:45:31.600Z,22.50
2023-02-17T07:46:31.528Z,22.50
2023-02-17T07:47:31.591Z,22.50
2023-02-17T07:48:32.350Z,22.50
2023-02-17T07:49:31.568Z,16.88
2023-02-17T07:50:31.562Z,22.50
2023-02-17T07:51:31.468Z,22.50
2023-02-17T07:52:31.460Z,22.50
2023-02-17T07:53:31.454Z,22.50
2023-02-17T07:54:31.509Z,22.50
2023-02-17T07:55:31.512Z,28.12
2023-02-17T07:56:31.503Z,28.12
2023-02-17T07:57:31.418Z,28.12
2023-02-17T07:58:31.409Z,22.50
2023-02-17T07:59:31.377Z,22.50
2023-02-17T08:00:31.402Z,22.50
2023-02-17T08:01:31.487Z,22.50
2023-02-17T08:02:31.373Z,22.50
2023-02-17T08:03:31.327Z,22.50
2023-02-17T08:04:31.432Z,22.50
2023-02-17T08:05:31.359Z,22.50
2023-02-17T08:06:31.307Z,16.88
2023-02-17T08:07:31.308Z,16.88
2023-02-17T08:08:31.285Z,16.88
2023-02-17T08:09:31.300Z,16.88
2023-02-17T08:10:31.369Z,16.88
2023-02-17T08:11:31.257Z,16.88
2023-02-17T08:12:31.315Z,11.25
2023-02-17T08:13:31.227Z,11.25
2023-02-17T08:14:31.296Z,11.25
2023-02-17T08:15:31.228Z,11.25
2023-02-17T08:16:31.269Z,16.88
2023-02-17T08:17:31.214Z,16.88
2023-02-17T08:18:36.254Z,16.88
2023-02-17T08:19:46.510Z,16.88
2023-02-17T08:20:33.133Z,16.88
2023-02-17T08:21:31.164Z,16.88
2023-02-17T08:22:31.214Z,11.25
2023-02-17T08:23:31.108Z,16.88
2023-02-17T08:24:31.123Z,16.88
2023-02-17T08:25:31.128Z,16.88
2023-02-17T08:26:31.126Z,16.88
2023-02-17T08:27:31.133Z,16.88
2023-02-17T08:28:31.091Z,16.88
2023-02-17T08:29:31.088Z,16.88
2023-02-17T08:30:31.326Z,16.88
2023-02-17T08:31:31.933Z,16.88
2023-02-17T08:32:31.052Z,16.88
2023-02-17T08:33:31.063Z,16.88
2023-02-17T08:34:31.021Z,16.88
2023-02-17T08:35:31.028Z,11.25
2023-02-17T08:36:31.281Z,11.25
2023-02-17T08:37:30.974Z,11.25
2023-02-17T08:38:31.021Z,11.25
2023-02-17T08:39:30.941Z,11.25
2023-02-17T08:40:30.963Z,11.25
2023-02-17T08:41:31.291Z,11.25
2023-02-17T08:42:30.932Z,11.25
2023-02-17T08:43:30.992Z,11.25
2023-02-17T08:44:30.977Z,11.25
2023-02-17T08:45:30.874Z,11.25
2023-02-17T08:46:30.981Z,11.25
2023-02-17T08:47:30.900Z,11.25
2023-02-17T08:48:30.896Z,11.25
2023-02-17T08:49:30.931Z,11.25
2023-02-17T08:50:30.882Z,11.25
2023-02-17T08:51:30.901Z,11.25
2023-02-17T08:52:30.823Z,11.25
2023-02-17T08:53:30.832Z,16.88
2023-02-17T08:54:30.815Z,16.88
2023-02-17T08:55:40.832Z,16.88
2023-02-17T08:56:30.810Z,16.88
2023-02-17T08:57:30.883Z,16.88
2023-02-17T08:58:30.785Z,16.88
2023-02-17T08:59:30.780Z,16.88
2023-02-17T09:00:30.947Z,16.88
2023-02-17T09:01:30.880Z,16.88
2023-02-17T09:02:30.705Z,16.88
2023-02-17T09:03:30.779Z,16.88
2023-02-17T09:04:30.845Z,16.88
2023-02-17T09:05:30.751Z,16.88
2023-02-17T09:06:30.681Z,16.88
2023-02-17T09:07:30.744Z,16.88
2023-02-17T09:08:30.653Z,16.88
2023-02-17T09:09:30.711Z,16.88
2023-02-17T09:10:30.692Z,16.88
2023-02-17T09:11:30.607Z,16.88
2023-02-17T09:12:30.627Z,16.88
2023-02-17T09:13:30.604Z,16.88
2023-02-17T09:14:30.655Z,16.88
2023-02-17T09:15:30.648Z,16.88
2023-02-17T09:16:30.733Z,16.88
2023-02-17T09:17:30.533Z,16.88
2023-02-17T09:18:30.562Z,22.50
2023-02-17T09:19:30.577Z,22.50
2023-02-17T09:20:30.568Z,22.50
2023-02-17T09:21:30.517Z,16.88
2023-02-17T09:22:32.334Z,16.88
2023-02-17T09:23:30.581Z,16.88
2023-02-17T09:24:30.505Z,16.88
2023-02-17T09:25:30.460Z,16.88
2023-02-17T09:26:30.491Z,16.88
2023-02-17T09:27:30.594Z,16.88
2023-02-17T09:28:30.495Z,16.88
2023-02-17T09:29:30.458Z,22.50
2023-02-17T09:30:30.499Z,22.50
2023-02-17T09:31:30.443Z,22.50
2023-02-17T09:32:30.574Z,22.50
2023-02-17T09:33:30.371Z,22.50
2023-02-17T09:34:30.498Z,22.50
2023-02-17T09:35:30.319Z,22.50
2023-02-17T09:36:30.327Z,22.50
2023-02-17T09:37:30.309Z,22.50
2023-02-17T09:38:30.350Z,22.50
2023-02-17T09:39:30.302Z,22.50
2023-02-17T09:40:30.326Z,22.50
2023-02-17T09:41:30.301Z,22.50
2023-02-17T09:42:30.272Z,16.88
2023-02-17T09:43:30.577Z,22.50
2023-02-17T09:44:30.252Z,22.50
2023-02-17T09:45:30.320Z,22.50
2023-02-17T09:46:30.329Z,22.50
2023-02-17T09:47:30.271Z,22.50
2023-02-17T09:48:30.217Z,16.88
2023-02-17T09:49:30.315Z,16.88
2023-02-17T09:50:30.249Z,22.50
2023-02-17T09:51:30.268Z,16.88
2023-02-17T09:52:30.204Z,22.50
2023-02-17T09:53:30.149Z,22.50
2023-02-17T09:54:30.185Z,28.12
2023-02-17T09:55:30.194Z,28.12
2023-02-17T09:56:31.508Z,28.12
2023-02-17T09:57:30.206Z,28.12
2023-02-17T09:58:30.118Z,22.50
2023-02-17T09:59:30.100Z,22.50
2023-02-17T10:00:30.088Z,22.50
2023-02-17T10:01:30.140Z,16.88
2023-02-17T10:02:30.146Z,16.88
2023-02-17T10:03:30.093Z,16.88
2023-02-17T10:04:30.083Z,22.50
2023-02-17T10:05:30.150Z,22.50
2023-02-17T10:06:30.044Z,28.12
2023-02-17T10:07:30.105Z,28.12
2023-02-17T10:08:29.978Z,28.12
2023-02-17T10:09:30.176Z,22.50
2023-02-17T10:10:30.114Z,28.12
2023-02-17T10:11:29.948Z,22.50
2023-02-17T10:12:30.035Z,28.12
2023-02-17T10:13:30.025Z,22.50
2023-02-17T10:14:30.145Z,22.50
2023-02-17T10:15:30.001Z,22.50
2023-02-17T10:16:30.106Z,22.50
2023-02-17T10:17:29.927Z,22.50
2023-02-17T10:18:29.936Z,22.50
2023-02-17T10:19:29.881Z,22.50
2023-02-17T10:20:29.956Z,28.12
2023-02-17T10:21:29.881Z,28.12
2023-02-17T10:22:29.838Z,28.12
2023-02-17T10:23:29.901Z,28.12
2023-02-17T10:24:29.845Z,28.12
2023-02-17T10:25:30.077Z,22.50
2023-02-17T10:26:29.855Z,16.88
2023-02-17T10:27:29.828Z,16.88
2023-02-17T10:28:29.836Z,16.88
2023-02-17T10:29:29.830Z,28.12
2023-02-17T10:30:29.812Z,33.75
2023-02-17T10:31:29.932Z,39.38
2023-02-17T10:32:29.871Z,33.75
2023-02-17T10:33:29.778Z,28.12
2023-02-17T10:34:29.789Z,28.12
2023-02-17T10:35:29.769Z,28.12
2023-02-17T10:36:29.857Z,28.12
2023-02-17T10:37:29.753Z,33.75
2023-02-17T10:38:29.831Z,39.38
2023-02-17T10:39:29.704Z,45.00
2023-02-17T10:40:29.652Z,45.00
2023-02-17T10:41:30.341Z,45.00
2023-02-17T10:42:29.643Z,39.38
2023-02-17T10:43:29.630Z,39.38
2023-02-17T10:44:29.630Z,33.75
2023-02-17T10:45:29.618Z,33.75
2023-02-17T10:46:29.581Z,33.75
2023-02-17T10:47:29.633Z,33.75
2023-02-17T10:48:29.592Z,33.75
2023-02-17T10:49:29.524Z,33.75
2023-02-17T10:50:29.515Z,33.75
2023-02-17T10:51:29.510Z,33.75
2023-02-17T10:52:29.588Z,33.75
2023-02-17T10:53:29.534Z,33.75
2023-02-17T10:54:29.463Z,33.75
2023-02-17T10:55:29.454Z,33.75
2023-02-17T10:56:29.440Z,33.75
2023-02-17T10:57:29.472Z,33.75
2023-02-17T10:58:29.485Z,39.38
2023-02-17T10:59:29.544Z,33.75
2023-02-17T11:00:29.452Z,33.75
2023-02-17T11:01:29.443Z,33.75
2023-02-17T11:02:29.406Z,33.75
2023-02-17T11:03:29.382Z,28.12
2023-02-17T11:04:29.358Z,28.12
2023-02-17T11:05:29.341Z,28.12
2023-02-17T11:06:29.348Z,28.12
2023-02-17T11:07:29.353Z,33.75
2023-02-17T11:08:29.322Z,39.38
2023-02-17T11:09:29.316Z,39.38
2023-02-17T11:10:29.373Z,39.38
2023-02-17T11:11:29.381Z,33.75
2023-02-17T11:12:29.326Z,33.75
2023-02-17T11:13:29.259Z,33.75
2023-02-17T11:14:29.395Z,33.75
2023-02-17T11:15:29.234Z,33.75
2023-02-17T11:16:29.285Z,39.38
2023-02-17T11:17:29.247Z,39.38
2023-02-17T11:18:29.346Z,39.38
2023-02-17T11:19:29.258Z,39.38
2023-02-17T11:20:29.291Z,39.38
2023-02-17T11:21:29.242Z,39.38
2023-02-17T11:22:29.215Z,33.75
2023-02-17T11:23:29.188Z,33.75
2023-02-17T11:24:29.185Z,28.12
2023-02-17T11:25:29.199Z,28.12
2023-02-17T11:26:29.101Z,28.12
2023-02-17T11:27:29.114Z,28.12
2023-02-17T11:28:29.179Z,28.12
2023-02-17T11:29:29.372Z,28.12
2023-02-17T11:30:29.175Z,28.12
2023-02-17T11:31:29.152Z,28.12
2023-02-17T11:32:29.040Z,33.75
2023-02-17T11:33:29.037Z,33.75
2023-02-17T11:34:29.067Z,33.75
2023-02-17T11:35:29.037Z,33.75
2023-02-17T11:36:29.124Z,33.75
2023-02-17T11:37:29.062Z,33.75
2023-02-17T11:38:29.081Z,28.12
2023-02-17T11:39:29.230Z,28.12
2023-02-17T11:40:28.996Z,33.75
2023-02-17T11:41:28.974Z,33.75
2023-02-17T11:42:29.126Z,33.75
2023-02-17T11:43:28.955Z,33.75
2023-02-17T11:44:28.946Z,39.38
2023-02-17T11:45:28.973Z,39.38
2023-02-17T11:46:28.950Z,33.75
2023-02-17T11:47:28.951Z,39.38
2023-02-17T11:48:28.893Z,39.38
2023-02-17T11:49:28.864Z,33.75
2023-02-17T11:50:40.902Z,33.75
2023-02-17T11:51:28.849Z,33.75
2023-02-17T11:52:28.847Z,33.75
2023-02-17T11:53:28.850Z,28.12
2023-02-17T11:54:28.833Z,28.12
2023-02-17T11:55:28.844Z,28.12
2023-02-17T11:56:28.823Z,28.12
2023-02-17T11:57:28.797Z,28.12
2023-02-17T11:58:28.751Z,28.12
2023-02-17T11:59:28.799Z,28.12
2023-02-17T12:00:28.733Z,28.12
2023-02-17T12:01:28.727Z,28.12
2023-02-17T12:02:28.714Z,28.12
2023-02-17T12:03:28.768Z,28.12
2023-02-17T12:04:28.720Z,28.12
2023-02-17T12:05:28.699Z,28.12
2023-02-17T12:06:28.678Z,28.12
2023-02-17T12:07:28.690Z,28.12
2023-02-17T12:08:28.658Z,28.12
2023-02-17T12:09:28.719Z,28.12
2023-02-17T12:10:28.647Z,22.50
2023-02-17T12:11:28.655Z,22.50
2023-02-17T12:12:28.622Z,22.50
2023-02-17T12:13:28.631Z,22.50
2023-02-17T12:14:31.130Z,22.50
2023-02-17T12:15:28.791Z,22.50
2023-02-17T12:16:28.628Z,22.50
2023-02-17T12:17:28.595Z,22.50
2023-02-17T12:18:28.539Z,28.12
2023-02-17T12:19:28.529Z,28.12
2023-02-17T12:20:28.527Z,28.12
2023-02-17T12:21:28.542Z,28.12
2023-02-17T12:22:28.525Z,28.12
2023-02-17T12:23:28.474Z,28.12
2023-02-17T12:24:28.479Z,28.12
2023-02-17T12:25:28.585Z,28.12
2023-02-17T12:26:28.487Z,28.12
2023-02-17T12:27:28.506Z,28.12
2023-02-17T12:28:28.427Z,28.12
2023-02-17T12:29:28.443Z,28.12
2023-02-17T12:30:28.541Z,28.12
2023-02-17T12:31:28.587Z,28.12
2023-02-17T12:32:28.428Z,28.12
2023-02-17T12:33:28.761Z,28.12
2023-02-17T12:34:28.542Z,28.12
2023-02-17T12:35:28.456Z,28.12
2023-02-17T12:36:28.461Z,28.12
2023-02-17T12:37:28.389Z,33.75
2023-02-17T12:38:28.314Z,33.75
2023-02-17T12:39:28.385Z,33.75
2023-02-17T12:40:28.378Z,39.38
2023-02-17T12:41:28.323Z,33.75
2023-02-17T12:42:28.329Z,28.12
2023-02-17T12:43:28.367Z,33.75
2023-02-17T12:44:28.289Z,39.38
2023-02-17T12:45:28.266Z,50.62
2023-02-17T12:46:28.264Z,56.25
2023-02-17T12:47:28.601Z,56.25
2023-02-17T12:48:28.239Z,56.25
2023-02-17T12:49:28.374Z,56.25
2023-02-17T12:50:28.288Z,56.25
2023-02-17T12:51:28.200Z,56.25
2023-02-17T12:52:28.175Z,50.62
2023-02-17T12:53:28.196Z,39.38
2023-02-17T12:54:28.135Z,39.38
2023-02-17T12:55:28.143Z,45.00
2023-02-17T12:56:28.188Z,39.38
2023-02-17T12:57:28.135Z,39.38
2023-02-17T12:58:28.195Z,39.38
2023-02-17T12:59:28.147Z,33.75
2023-02-17T13:00:28.207Z,28.12
2023-02-17T13:01:28.106Z,28.12
2023-02-17T13:02:28.098Z,22.50
2023-02-17T13:03:28.037Z,22.50
2023-02-17T13:04:28.033Z,16.88
2023-02-17T13:05:28.029Z,16.88
2023-02-17T13:06:28.046Z,16.88
2023-02-17T13:07:27.996Z,16.88
2023-02-17T13:08:28.078Z,16.88
2023-02-17T13:09:28.007Z,11.25
2023-02-17T13:10:28.104Z,11.25
2023-02-17T13:11:27.978Z,11.25
2023-02-17T13:12:27.939Z,11.25
2023-02-17T13:13:28.070Z,11.25
2023-02-17T13:14:27.981Z,11.25
2023-02-17T13:15:27.954Z,11.25
2023-02-17T13:16:27.890Z,11.25
2023-02-17T13:17:27.931Z,11.25
2023-02-17T13:18:27.904Z,11.25
2023-02-17T13:19:27.856Z,11.25
2023-02-17T13:20:27.934Z,11.25
2023-02-17T13:21:27.844Z,16.88
2023-02-17T13:22:27.833Z,16.88
2023-02-17T13:23:27.905Z,11.25
2023-02-17T13:24:27.815Z,11.25
2023-02-17T13:25:27.800Z,11.25
2023-02-17T13:26:27.778Z,11.25
2023-02-17T13:27:27.810Z,11.25
2023-02-17T13:28:27.788Z,11.25
2023-02-17T13:29:27.774Z,11.25
2023-02-17T13:30:27.807Z,11.25
2023-02-17T13:31:27.923Z,11.25
2023-02-17T13:32:27.746Z,16.88
2023-02-17T13:33:27.727Z,16.88
2023-02-17T13:34:27.697Z,16.88
2023-02-17T13:35:27.714Z,16.88
2023-02-17T13:36:27.713Z,16.88
2023-02-17T13:37:27.789Z,16.88
2023-02-17T13:38:27.647Z,16.88
2023-02-17T13:39:27.636Z,16.88
2023-02-17T13:40:27.659Z,16.88
2023-02-17T13:41:27.708Z,16.88
2023-02-17T13:42:27.610Z,16.88
2023-02-17T13:43:27.588Z,16.88
2023-02-17T13:44:27.599Z,16.88
2023-02-17T13:45:27.602Z,16.88
2023-02-17T13:46:27.612Z,16.88
2023-02-17T13:47:27.577Z,16.88
2023-02-17T13:48:27.535Z,16.88
2023-02-17T13:49:27.530Z,11.25
2023-02-17T13:50:27.509Z,11.25
2023-02-17T13:51:27.557Z,11.25
2023-02-17T13:52:27.514Z,11.25
2023-02-17T13:53:27.597Z,11.25
2023-02-17T13:54:27.462Z,11.25
2023-02-17T13:55:27.461Z,11.25
2023-02-17T13:56:27.448Z,11.25
2023-02-17T13:57:27.490Z,11.25
2023-02-17T13:58:27.454Z,11.25
2023-02-17T13:59:27.446Z,11.25
2023-02-17T14:00:27.395Z,11.25
2023-02-17T14:01:27.529Z,11.25
2023-02-17T14:02:36.176Z,5.62
2023-02-17T14:03:27.394Z,5.62
2023-02-17T14:04:27.415Z,5.62
2023-02-17T14:05:27.357Z,5.62
2023-02-17T14:06:27.370Z,5.62
2023-02-17T14:07:27.414Z,5.62
2023-02-17T14:08:27.358Z,5.62
2023-02-17T14:09:27.350Z,5.62
2023-02-17T14:10:27.302Z,5.62
2023-02-17T14:11:27.288Z,5.62
2023-02-17T14:12:27.282Z,5.62
2023-02-17T14:13:27.294Z,5.62
2023-02-17T14:14:27.289Z,5.62
2023-02-17T14:15:27.258Z,5.62
2023-02-17T14:16:27.233Z,5.62
2023-02-17T14:17:27.204Z,5.62
2023-02-17T14:18:27.220Z,5.62
2023-02-17T14:19:27.187Z,11.25
2023-02-17T14:20:27.210Z,11.25
2023-02-17T14:21:27.218Z,11.25
2023-02-17T14:22:27.319Z,11.25
2023-02-17T14:23:27.208Z,11.25
2023-02-17T14:24:27.156Z,11.25
2023-02-17T14:25:27.125Z,11.25
2023-02-17T14:26:27.145Z,11.25
2023-02-17T14:27:27.179Z,5.62
2023-02-17T14:28:27.167Z,5.62
2023-02-17T14:29:27.093Z,11.25
2023-02-17T14:30:27.146Z,11.25
2023-02-17T14:31:27.333Z,5.62
2023-02-17T14:32:27.105Z,5.62
2023-02-17T14:33:27.168Z,5.62
2023-02-17T14:34:27.123Z,5.62
2023-02-17T14:35:27.022Z,5.62
2023-02-17T14:36:27.094Z,5.62
2023-02-17T14:37:26.987Z,5.62
2023-02-17T14:38:27.053Z,5.62
2023-02-17T14:39:27.065Z,5.62
2023-02-17T14:40:27.268Z,5.62
2023-02-17T14:41:27.134Z,5.62
2023-02-17T14:42:27.069Z,5.62
2023-02-17T14:43:27.022Z,5.62
2023-02-17T14:44:26.917Z,5.62
2023-02-17T14:45:26.959Z,5.62
2023-02-17T14:46:26.995Z,5.62
2023-02-17T14:47:26.979Z,5.62
2023-02-17T14:48:27.986Z,5.62
2023-02-17T14:49:26.900Z,5.62
2023-02-17T14:50:26.868Z,5.62
2023-02-17T14:51:26.948Z,11.25
2023-02-17T14:52:26.931Z,11.25
2023-02-17T14:53:26.916Z,11.25
2023-02-17T14:54:28.792Z,5.62
2023-02-17T14:55:27.266Z,5.62
2023-02-17T14:56:26.788Z,11.25
2023-02-17T14:57:26.774Z,5.62
2023-02-17T14:58:26.785Z,5.62
2023-02-17T14:59:26.992Z,5.62
2023-02-17T15:00:27.830Z,5.62
2023-02-17T15:01:27.164Z,5.62
2023-02-17T15:02:26.782Z,5.62
2023-02-17T15:03:26.707Z,5.62
2023-02-17T15:04:26.874Z,0.00
2023-02-17T15:05:26.694Z,0.00
2023-02-17T15:06:30.079Z,5.62
2023-02-17T15:07:26.675Z,5.62
2023-02-17T15:08:26.669Z,5.62
2023-02-17T15:09:26.673Z,0.00
2023-02-17T15:10:26.683Z,0.00
2023-02-17T15:11:26.633Z,0.00
2023-02-17T15:12:28.268Z,0.00
2023-02-17T15:13:26.602Z,0.00
2023-02-17T15:14:26.625Z,0.00
2023-02-17T15:15:26.602Z,0.00
2023-02-17T15:16:26.626Z,0.00
2023-02-17T15:17:26.567Z,0.00
2023-02-17T15:18:28.151Z,0.00
2023-02-17T15:19:26.553Z,0.00
2023-02-17T15:20:26.612Z,0.00
2023-02-17T15:21:26.503Z,0.00
2023-02-17T15:22:26.510Z,0.00
2023-02-17T15:23:26.505Z,0.00
2023-02-17T15:24:29.997Z,0.00
2023-02-17T15:25:26.474Z,0.00
2023-02-17T15:26:26.479Z,0.00
2023-02-17T15:27:26.443Z,0.00
2023-02-17T15:28:26.469Z,0.00
2023-02-17T15:29:26.594Z,0.00
2023-02-17T15:30:28.488Z,5.62
2023-02-17T15:31:26.514Z,5.62
2023-02-17T15:32:26.430Z,5.62
2023-02-17T15:33:26.447Z,0.00
2023-02-17T15:34:26.383Z,0.00
2023-02-17T15:35:26.368Z,0.00
2023-02-17T15:36:26.339Z,0.00
2023-02-17T15:37:26.380Z,0.00
2023-02-17T15:38:26.318Z,0.00
2023-02-17T15:39:26.338Z,0.00
2023-02-17T15:40:26.327Z,0.00
2023-02-17T15:41:26.305Z,0.00
2023-02-17T15:42:26.295Z,0.00
2023-02-17T15:43:26.283Z,0.00
2023-02-17T15:44:26.272Z,0.00
2023-02-17T15:45:26.269Z,0.00
2023-02-17T15:46:26.276Z,0.00
2023-02-17T15:47:26.213Z,0.00
2023-02-17T15:48:26.224Z,0.00
2023-02-17T15:49:26.197Z,0.00
2023-02-17T15:50:26.213Z,0.00
2023-02-17T15:51:26.196Z,0.00
2023-02-17T15:52:26.204Z,0.00
2023-02-17T15:53:26.180Z,0.00
2023-02-17T15:54:26.224Z,0.00
2023-02-17T15:55:26.168Z,0.00
2023-02-17T15:56:26.141Z,0.00
2023-02-17T15:57:26.116Z,0.00
2023-02-17T15:58:26.108Z,0.00
2023-02-17T15:59:26.115Z,0.00
2023-02-17T16:00:26.403Z,0.00
2023-02-17T16:01:26.532Z,0.00
2023-02-17T16:02:26.116Z,0.00
2023-02-17T16:03:26.407Z,0.00
2023-02-17T16:04:26.330Z,0.00
2023-02-17T16:05:26.211Z,0.00
2023-02-17T16:06:26.474Z,0.00
2023-02-17T16:07:26.103Z,0.00
2023-02-17T16:08:26.184Z,0.00
2023-02-17T16:09:25.993Z,0.00
2023-02-17T16:10:26.263Z,0.00
2023-02-17T16:11:26.061Z,0.00
2023-02-17T16:12:26.041Z,0.00
2023-02-17T16:13:26.071Z,0.00
2023-02-17T16:14:25.965Z,0.00
2023-02-17T16:15:26.411Z,0.00
2023-02-17T16:16:26.042Z,0.00
2023-02-17T16:17:25.990Z,0.00
2023-02-17T16:18:25.991Z,0.00
2023-02-17T16:19:25.862Z,0.00
2023-02-17T16:20:28.921Z,0.00
2023-02-17T16:21:26.402Z,0.00
2023-02-17T16:22:25.884Z,0.00
2023-02-17T16:23:25.834Z,0.00
2023-02-17T16:24:25.818Z,0.00
2023-02-17T16:25:25.794Z,0.00
2023-02-17T16:26:25.809Z,0.00
2023-02-17T16:27:25.783Z,0.00
2023-02-17T16:28:25.791Z,0.00
2023-02-17T16:29:25.755Z,0.00
2023-02-17T16:30:25.791Z,0.00
2023-02-17T16:31:25.819Z,0.00
2023-02-17T16:32:25.982Z,0.00
2023-02-17T16:33:26.703Z,0.00
2023-02-17T16:34:25.703Z,0.00
2023-02-17T16:35:25.694Z,0.00
2023-02-17T16:36:26.088Z,0.00
2023-02-17T16:37:25.672Z,0.00
2023-02-17T16:38:25.759Z,0.00
2023-02-17T16:39:25.660Z,0.00
2023-02-17T16:40:25.648Z,0.00
2023-02-17T16:41:25.633Z,0.00
2023-02-17T16:42:25.621Z,0.00
2023-02-17T16:43:25.615Z,0.00
2023-02-17T16:44:25.599Z,0.00
2023-02-17T16:45:25.616Z,0.00
2023-02-17T16:46:25.592Z,0.00
2023-02-17T16:47:25.618Z,0.00
2023-02-17T16:48:25.632Z,0.00
2023-02-17T16:49:25.598Z,0.00
2023-02-17T16:50:25.582Z,0.00
2023-02-17T16:51:25.569Z,0.00
2023-02-17T16:52:25.559Z,0.00
2023-02-17T16:53:25.515Z,0.00
2023-02-17T16:54:25.536Z,0.00
2023-02-17T16:55:25.531Z,0.00
2023-02-17T16:56:25.540Z,0.00
2023-02-17T16:57:25.498Z,0.00
2023-02-17T16:58:25.541Z,0.00
2023-02-17T16:59:25.469Z,0.00
2023-02-17T17:00:25.503Z,0.00
2023-02-17T17:01:25.481Z,0.00
2023-02-17T17:02:25.519Z,0.00
2023-02-17T17:03:25.503Z,0.00
2023-02-17T17:04:25.444Z,0.00
2023-02-17T17:05:25.436Z,0.00
2023-02-17T17:06:25.407Z,0.00
2023-02-17T17:07:25.379Z,0.00
2023-02-17T17:08:25.421Z,0.00
2023-02-17T17:09:25.379Z,0.00
2023-02-17T17:10:25.497Z,0.00
2023-02-17T17:11:25.358Z,0.00
2023-02-17T17:12:25.349Z,0.00
2023-02-17T17:13:25.319Z,0.00
2023-02-17T17:14:25.362Z,0.00
2023-02-17T17:15:25.298Z,0.00
2023-02-17T17:16:25.352Z,0.00
2023-02-17T17:17:25.288Z,0.00
2023-02-17T17:18:25.303Z,0.00
2023-02-17T17:19:25.330Z,0.00
2023-02-17T17:20:25.288Z,0.00
2023-02-17T17:21:25.251Z,0.00
2023-02-17T17:22:25.259Z,0.00
2023-02-17T17:23:25.227Z,0.00
2023-02-17T17:24:25.198Z,0.00
2023-02-17T17:25:25.207Z,0.00
2023-02-17T17:26:25.197Z,0.00
2023-02-17T17:27:25.170Z,0.00
2023-02-17T17:28:25.170Z,0.00
2023-02-17T17:29:25.161Z,0.00
2023-02-17T17:30:25.180Z,0.00
2023-02-17T17:31:25.174Z,0.00
2023-02-17T17:32:25.248Z,0.00
2023-02-17T17:33:25.123Z,0.00
2023-02-17T17:34:25.091Z,0.00
2023-02-17T17:35:25.096Z,0.00
2023-02-17T17:36:25.119Z,0.00
2023-02-17T17:37:25.084Z,0.00
2023-02-17T17:38:25.334Z,0.00
2023-02-17T17:39:25.046Z,0.00
2023-02-17T17:40:25.053Z,0.00
2023-02-17T17:41:25.208Z,0.00
2023-02-17T17:42:25.003Z,0.00
2023-02-17T17:43:24.986Z,0.00
2023-02-17T17:44:24.996Z,0.00
2023-02-17T17:45:24.989Z,0.00
2023-02-17T17:46:25.015Z,0.00
2023-02-17T17:47:30.220Z,0.00
2023-02-17T17:48:24.979Z,0.00
2023-02-17T17:49:24.933Z,0.00
2023-02-17T17:50:25.380Z,0.00
2023-02-17T17:51:24.954Z,0.00
2023-02-17T17:52:24.952Z,0.00
2023-02-17T17:53:24.888Z,0.00
2023-02-17T17:54:24.873Z,0.00
2023-02-17T17:55:24.946Z,0.00
2023-02-17T17:56:24.852Z,0.00
2023-02-17T17:57:24.846Z,0.00
2023-02-17T17:58:24.906Z,0.00
2023-02-17T17:59:24.829Z,0.00
2023-02-17T18:00:24.818Z,0.00
2023-02-17T18:01:24.837Z,0.00
2023-02-17T18:02:24.809Z,0.00
2023-02-17T18:03:24.804Z,0.00
2023-02-17T18:04:24.800Z,0.00